Time;durP1;ratioP1;P1;durP2;ratioP2;P2;SDS_P1;SDS_P2;PMS_P1;PMS_P2;Temp;Humidity;BMP_temperature;BMP_pressure;BME280_temperature;BME280_humidity;BME280_pressure;Samples;Min_cycle;Max_cycle;Signal;HPM_P1;HPM_P2
2021/08/30 00:00:29;;;;;;;5.50;3.28;;;;;22.50;101943.00;;;;5011745;28;20197;-78
2021/08/30 00:02:56;;;;;;;4.57;2.60;;;;;22.50;101947.00;;;;5012422;28;20213;-77
2021/08/30 00:05:23;;;;;;;5.63;3.03;;;;;22.50;101940.00;;;;5011259;28;20205;-78
2021/08/30 00:07:51;;;;;;;3.53;2.70;;;;;22.50;101937.00;;;;5011273;28;20202;-78
2021/08/30 00:10:18;;;;;;;5.18;3.15;;;;;22.50;101943.00;;;;5012216;28;20211;-77
2021/08/30 00:12:47;;;;;;;4.65;3.10;;;;;22.40;101938.00;;;;5011805;28;20201;-78
2021/08/30 00:15:15;;;;;;;4.10;3.28;;;;;22.40;101939.00;;;;5011599;28;20244;-77
2021/08/30 00:17:45;;;;;;;4.88;3.22;;;;;22.40;101940.00;;;;5010672;28;21132;-78
2021/08/30 00:20:15;;;;;;;3.67;3.00;;;;;22.40;101939.00;;;;4998911;28;20208;-79
2021/08/30 00:22:43;;;;;;;3.00;2.15;;;;;22.40;101932.00;;;;5011224;28;20209;-78
2021/08/30 00:25:11;;;;;;;4.03;2.97;;;;;22.40;101926.00;;;;5011477;28;20204;-78
2021/08/30 00:27:39;;;;;;;4.43;3.03;;;;;22.40;101933.00;;;;5011223;28;20207;-78
2021/08/30 00:30:10;;;;;;;4.55;3.03;;;;;22.30;101933.00;;;;5012215;28;20213;-78
2021/08/30 00:32:37;;;;;;;5.80;3.42;;;;;22.30;101938.00;;;;5011653;28;20205;-78
2021/08/30 00:35:05;;;;;;;5.22;3.00;;;;;22.30;101938.00;;;;5011367;28;20224;-79
2021/08/30 00:37:32;;;;;;;4.53;3.33;;;;;22.30;101929.00;;;;5008412;28;20213;-79
2021/08/30 00:40:00;;;;;;;3.22;2.78;;;;;22.30;101945.00;;;;5012128;28;20555;-78
2021/08/30 00:42:27;;;;;;;4.35;3.30;;;;;22.30;101938.00;;;;5010558;28;20205;-78
2021/08/30 00:44:55;;;;;;;3.83;2.78;;;;;22.30;101933.00;;;;5011820;28;20418;-79
2021/08/30 00:47:24;;;;;;;4.95;3.40;;;;;22.30;101941.00;;;;5010751;28;20580;-78
2021/08/30 00:49:51;;;;;;;4.93;3.55;;;;;22.30;101934.00;;;;5011008;28;20209;-78
2021/08/30 00:52:18;;;;;;;4.55;3.08;;;;;22.30;101934.00;;;;5010857;28;20208;-78
2021/08/30 00:54:45;;;;;;;4.38;2.65;;;;;22.30;101946.00;;;;5010590;28;20225;-79
2021/08/30 00:57:13;;;;;;;5.28;3.08;;;;;22.30;101941.00;;;;5011182;28;20205;-79
2021/08/30 00:59:42;;;;;;;6.03;3.00;;;;;22.30;101943.00;;;;5010074;28;20196;-78
2021/08/30 01:02:10;;;;;;;4.13;3.20;;;;;22.30;101943.00;;;;5011271;28;20197;-78
2021/08/30 01:04:40;;;;;;;4.47;2.92;;;;;22.40;101936.00;;;;5010762;28;20217;-78
2021/08/30 01:07:12;;;;;;;6.88;3.67;;;;;22.40;101938.00;;;;5010147;28;20287;-78
2021/08/30 01:09:46;;;;;;;6.88;3.00;;;;;22.40;101941.00;;;;5010714;28;20209;-78
2021/08/30 01:12:17;;;;;;;4.95;3.05;;;;;22.40;101938.00;;;;5011092;28;20209;-77
2021/08/30 01:14:48;;;;;;;4.07;2.72;;;;;22.40;101944.00;;;;5010370;28;20229;-78
2021/08/30 01:17:17;;;;;;;3.80;3.00;;;;;22.40;101938.00;;;;5010316;28;20228;-77
2021/08/30 01:19:52;;;;;;;6.43;3.65;;;;;22.40;101950.00;;;;5010066;28;20201;-78
2021/08/30 01:22:21;;;;;;;4.50;2.92;;;;;22.40;101949.00;;;;5009853;28;20208;-78
2021/08/30 01:24:50;;;;;;;5.80;3.35;;;;;22.40;101944.00;;;;5010500;28;20208;-78
2021/08/30 01:27:19;;;;;;;5.57;3.38;;;;;22.50;101956.00;;;;5009704;28;20225;-78
2021/08/30 01:29:53;;;;;;;4.03;3.10;;;;;22.40;101949.00;;;;5009841;28;20220;-79
2021/08/30 01:32:31;;;;;;;4.63;3.05;;;;;22.40;101951.00;;;;5009985;28;20204;-79
2021/08/30 01:35:00;;;;;;;4.82;3.78;;;;;22.40;101956.00;;;;5010525;28;20228;-78
2021/08/30 01:37:29;;;;;;;4.57;3.22;;;;;22.40;101939.00;;;;5009887;28;20205;-78
2021/08/30 01:39:57;;;;;;;4.70;3.75;;;;;22.50;101941.00;;;;5009804;28;20196;-78
2021/08/30 01:42:26;;;;;;;5.82;3.38;;;;;22.40;101944.00;;;;5010337;28;20569;-77
2021/08/30 01:44:54;;;;;;;3.53;3.05;;;;;22.40;101946.00;;;;5010522;28;20228;-78
2021/08/30 01:47:22;;;;;;;4.07;3.08;;;;;22.50;101942.00;;;;5009899;28;20573;-77
2021/08/30 01:50:00;;;;;;;4.63;3.03;;;;;22.50;101952.00;;;;5010356;28;20201;-79
2021/08/30 01:52:29;;;;;;;4.38;3.15;;;;;22.50;101951.00;;;;5009363;28;20254;-78
2021/08/30 01:54:57;;;;;;;5.32;3.38;;;;;22.50;101952.00;;;;5009479;28;20224;-78
2021/08/30 01:57:26;;;;;;;6.18;3.67;;;;;22.40;101951.00;;;;5009400;28;20248;-78
2021/08/30 02:02:38;;;;;;;3.70;3.20;;;;;22.50;101947.00;;;;5009289;28;20692;-77
2021/08/30 02:05:07;;;;;;;5.38;3.25;;;;;22.40;101947.00;;;;5009637;28;20201;-78
2021/08/30 02:07:34;;;;;;;6.15;4.03;;;;;22.50;101942.00;;;;5008949;28;20201;-78
2021/08/30 02:10:02;;;;;;;6.00;3.42;;;;;22.40;101938.00;;;;5010534;28;20201;-78
2021/08/30 02:12:29;;;;;;;5.00;4.00;;;;;22.40;101927.00;;;;5008823;28;20219;-77
2021/08/30 02:14:56;;;;;;;5.22;3.70;;;;;22.40;101927.00;;;;5010210;28;20208;-78
2021/08/30 02:17:30;;;;;;;4.35;3.40;;;;;22.40;101926.00;;;;5008630;28;20255;-78
2021/08/30 02:20:07;;;;;;;7.40;3.90;;;;;22.40;101930.00;;;;5009993;28;20207;-78
2021/08/30 02:22:42;;;;;;;4.45;3.33;;;;;22.40;101925.00;;;;5008955;28;20208;-78
2021/08/30 02:25:14;;;;;;;6.40;4.20;;;;;22.40;101932.00;;;;5009711;28;20585;-78
2021/08/30 02:27:45;;;;;;;5.85;4.07;;;;;22.40;101926.00;;;;5009347;28;20247;-77
2021/08/30 02:30:17;;;;;;;6.07;4.35;;;;;22.40;101924.00;;;;5009365;28;20197;-77
2021/08/30 02:32:46;;;;;;;5.35;3.60;;;;;22.40;101925.00;;;;5009294;28;20213;-77
2021/08/30 02:35:17;;;;;;;3.85;3.20;;;;;22.40;101921.00;;;;5009338;28;20315;-78
2021/08/30 02:37:46;;;;;;;6.47;3.42;;;;;22.40;101923.00;;;;5009076;28;20212;-77
2021/08/30 02:40:14;;;;;;;6.55;3.55;;;;;22.40;101926.00;;;;5008928;28;20212;-77
2021/08/30 02:42:42;;;;;;;4.90;3.80;;;;;22.50;101936.00;;;;5006768;28;20197;-77
2021/08/30 02:45:12;;;;;;;5.70;3.80;;;;;22.40;101927.00;;;;5009046;28;20195;-77
2021/08/30 02:47:40;;;;;;;6.60;3.80;;;;;22.40;101925.00;;;;5008469;28;20212;-77
2021/08/30 02:50:10;;;;;;;5.07;3.50;;;;;22.40;101925.00;;;;5009309;28;20197;-77
2021/08/30 02:52:38;;;;;;;5.07;4.03;;;;;22.40;101932.00;;;;5008829;28;20201;-78
2021/08/30 02:55:08;;;;;;;6.05;3.53;;;;;22.40;101933.00;;;;5009370;28;20193;-78
2021/08/30 02:57:37;;;;;;;7.10;4.15;;;;;22.40;101929.00;;;;5007869;28;20212;-78
2021/08/30 03:00:06;;;;;;;4.70;3.42;;;;;22.40;101936.00;;;;5008527;28;20197;-79
2021/08/30 03:02:34;;;;;;;5.30;4.00;;;;;22.40;101929.00;;;;5008592;28;20211;-77
2021/08/30 03:05:03;;;;;;;8.18;4.10;;;;;22.40;101930.00;;;;5009267;28;20200;-79
2021/08/30 03:07:32;;;;;;;6.45;3.80;;;;;22.40;101927.00;;;;5008013;28;20204;-77
2021/08/30 03:10:00;;;;;;;4.47;3.67;;;;;22.40;101923.00;;;;5008983;28;20205;-78
2021/08/30 03:12:33;;;;;;;5.72;4.50;;;;;22.30;101927.00;;;;5009315;28;20219;-78
2021/08/30 03:15:05;;;;;;;5.53;3.80;;;;;22.30;101924.00;;;;5008722;28;20317;-78
2021/08/30 03:17:34;;;;;;;6.97;4.22;;;;;22.30;101924.00;;;;5005435;28;20248;-77
2021/08/30 03:20:02;;;;;;;6.95;5.18;;;;;22.40;101918.00;;;;5005222;28;20196;-78
2021/08/30 03:22:31;;;;;;;5.70;4.38;;;;;22.30;101926.00;;;;5007578;28;20216;-78
2021/08/30 03:25:00;;;;;;;5.90;4.07;;;;;22.30;101925.00;;;;5002925;28;20193;-78
2021/08/30 03:27:29;;;;;;;6.80;4.47;;;;;22.30;101925.00;;;;5008041;28;20236;-78
2021/08/30 03:29:58;;;;;;;4.97;3.78;;;;;22.30;101931.00;;;;5007698;28;20208;-78
2021/08/30 03:32:26;;;;;;;5.93;3.95;;;;;22.30;101929.00;;;;5007421;28;20216;-77
2021/08/30 03:34:54;;;;;;;8.57;3.83;;;;;22.30;101932.00;;;;5007294;28;20211;-77
2021/08/30 03:37:22;;;;;;;4.60;3.88;;;;;22.30;101935.00;;;;5007957;28;20279;-78
2021/08/30 03:39:49;;;;;;;5.32;4.00;;;;;22.30;101929.00;;;;5007421;28;20688;-77
2021/08/30 03:42:16;;;;;;;7.22;4.43;;;;;22.30;101931.00;;;;5008195;28;20208;-77
2021/08/30 03:44:45;;;;;;;5.93;3.92;;;;;22.30;101939.00;;;;5006371;28;20208;-78
2021/08/30 03:47:13;;;;;;;7.25;4.25;;;;;22.30;101934.00;;;;5007469;28;20201;-78
2021/08/30 03:49:42;;;;;;;5.53;3.97;;;;;22.30;101933.00;;;;5007090;28;20209;-78
2021/08/30 03:52:10;;;;;;;4.65;3.80;;;;;22.40;101936.00;;;;5008263;28;20208;-78
2021/08/30 03:54:38;;;;;;;6.05;4.20;;;;;22.40;101922.00;;;;5005764;28;20197;-78
2021/08/30 03:57:06;;;;;;;5.95;5.00;;;;;22.40;101932.00;;;;5007729;28;20606;-78
2021/08/30 03:59:36;;;;;;;5.43;3.92;;;;;22.40;101928.00;;;;5006835;28;20201;-79
2021/08/30 04:02:07;;;;;;;6.97;4.13;;;;;22.40;101924.00;;;;5006658;28;20200;-78
2021/08/30 04:04:35;;;;;;;5.70;4.10;;;;;22.40;101923.00;;;;5006872;28;20236;-78
2021/08/30 04:07:05;;;;;;;6.97;4.63;;;;;22.40;101921.00;;;;5007916;28;20204;-78
2021/08/30 04:09:33;;;;;;;4.75;4.05;;;;;22.40;101926.00;;;;5007240;28;20574;-78
2021/08/30 04:12:00;;;;;;;5.30;4.38;;;;;22.40;101922.00;;;;5006853;28;20200;-78
2021/08/30 04:14:28;;;;;;;4.72;4.07;;;;;22.40;101914.00;;;;5007185;28;20208;-78
2021/08/30 04:16:55;;;;;;;5.53;3.93;;;;;22.40;101926.00;;;;4974388;28;1034010;-78
2021/08/30 04:19:24;;;;;;;5.75;4.53;;;;;22.40;101928.00;;;;5012026;28;20200;-78
2021/08/30 04:21:51;;;;;;;8.35;5.45;;;;;22.40;101924.00;;;;5012057;28;20499;-78
2021/08/30 04:24:18;;;;;;;5.95;4.28;;;;;22.40;101916.00;;;;5011449;28;20205;-78
2021/08/30 04:26:46;;;;;;;6.70;4.32;;;;;22.40;101925.00;;;;5011735;28;20719;-78
2021/08/30 04:29:13;;;;;;;8.68;5.00;;;;;22.40;101929.00;;;;5011920;28;20208;-78
2021/08/30 04:31:40;;;;;;;7.38;4.88;;;;;22.40;101922.00;;;;5011494;28;20200;-78
2021/08/30 04:34:08;;;;;;;5.97;4.47;;;;;22.40;101923.00;;;;5011689;28;20213;-78
2021/08/30 04:36:36;;;;;;;7.28;4.68;;;;;22.40;101923.00;;;;5010507;28;20224;-78
2021/08/30 04:39:04;;;;;;;8.57;6.43;;;;;22.30;101925.00;;;;5011151;28;20955;-78
2021/08/30 04:41:31;;;;;;;7.30;5.10;;;;;22.40;101925.00;;;;5018293;28;20213;-78
2021/08/30 04:43:59;;;;;;;6.57;5.05;;;;;22.40;101932.00;;;;5012110;28;20212;-79
2021/08/30 04:46:27;;;;;;;5.57;4.45;;;;;22.50;101930.00;;;;5011281;28;20201;-78
2021/08/30 04:48:54;;;;;;;7.20;4.40;;;;;22.50;101927.00;;;;5011260;28;20211;-78
2021/08/30 04:51:21;;;;;;;7.88;5.07;;;;;22.50;101923.00;;;;5012205;28;20204;-78
2021/08/30 04:53:50;;;;;;;6.90;4.63;;;;;22.50;101932.00;;;;5011562;28;20197;-78
2021/08/30 04:56:17;;;;;;;7.45;5.35;;;;;22.50;101924.00;;;;5011684;28;20259;-78
2021/08/30 04:58:44;;;;;;;8.05;4.80;;;;;22.50;101931.00;;;;5010057;28;20201;-79
2021/08/30 05:01:12;;;;;;;11.80;7.40;;;;;22.50;101936.00;;;;5011032;28;20450;-78
2021/08/30 05:03:39;;;;;;;7.63;5.28;;;;;22.50;101934.00;;;;5010919;28;20204;-79
2021/08/30 05:06:06;;;;;;;7.43;5.10;;;;;22.50;101937.00;;;;5011060;28;20213;-79
2021/08/30 05:08:33;;;;;;;7.32;5.57;;;;;22.60;101940.00;;;;5011175;28;20204;-77
2021/08/30 05:11:02;;;;;;;8.55;5.38;;;;;22.60;101944.00;;;;5010228;28;20573;-77
2021/08/30 05:13:29;;;;;;;6.68;5.43;;;;;22.60;101944.00;;;;5006414;28;20204;-77
2021/08/30 05:15:56;;;;;;;6.05;4.60;;;;;22.60;101945.00;;;;5010934;28;20236;-77
2021/08/30 05:18:24;;;;;;;6.70;5.57;;;;;22.60;101952.00;;;;5010625;28;20251;-77
2021/08/30 05:20:52;;;;;;;6.03;4.93;;;;;22.60;101955.00;;;;5010728;28;20201;-78
2021/08/30 05:23:20;;;;;;;6.75;5.13;;;;;22.60;101953.00;;;;5011069;28;20200;-78
2021/08/30 05:25:47;;;;;;;6.80;5.03;;;;;22.60;101951.00;;;;5009938;28;20693;-79
2021/08/30 05:28:16;;;;;;;9.88;5.85;;;;;22.60;101956.00;;;;5010036;28;20698;-78
2021/08/30 05:30:43;;;;;;;9.63;5.68;;;;;22.60;101961.00;;;;5011090;28;21065;-79
2021/08/30 05:33:10;;;;;;;7.55;5.80;;;;;22.60;101960.00;;;;5010307;28;20197;-79
2021/08/30 05:35:38;;;;;;;11.05;5.20;;;;;22.60;101959.00;;;;5009187;28;20205;-79
2021/08/30 05:38:05;;;;;;;8.38;5.90;;;;;22.60;101964.00;;;;5009229;28;20229;-78
2021/08/30 05:40:32;;;;;;;7.50;5.43;;;;;22.70;101962.00;;;;5009227;28;20212;-78
2021/08/30 05:43:00;;;;;;;11.77;5.75;;;;;22.70;101962.00;;;;5009817;28;20557;-77
2021/08/30 05:45:28;;;;;;;12.25;5.82;;;;;22.70;101966.00;;;;5009110;28;20205;-78
2021/08/30 05:47:56;;;;;;;11.93;6.15;;;;;22.70;101969.00;;;;5009675;28;20193;-79
2021/08/30 05:50:23;;;;;;;9.02;5.85;;;;;22.70;101965.00;;;;5010520;28;20197;-79
2021/08/30 05:52:50;;;;;;;7.30;5.95;;;;;22.70;101968.00;;;;5009536;28;20671;-81
2021/08/30 05:55:19;;;;;;;9.60;5.97;;;;;22.70;101964.00;;;;5007740;28;20209;-79
2021/08/30 05:57:46;;;;;;;8.43;5.28;;;;;22.80;101965.00;;;;5006761;28;20235;-79
2021/08/30 06:00:15;;;;;;;9.70;6.53;;;;;22.80;101977.00;;;;5005646;28;20203;-80
2021/08/30 06:02:44;;;;;;;9.23;5.68;;;;;22.80;101964.00;;;;5004372;28;20205;-80
2021/08/30 06:05:11;;;;;;;9.02;5.35;;;;;22.80;101965.00;;;;5005522;28;20335;-80
2021/08/30 06:07:39;;;;;;;10.15;5.97;;;;;22.80;101970.00;;;;5005394;28;20224;-78
2021/08/30 06:10:08;;;;;;;7.93;5.78;;;;;22.80;101965.00;;;;5009117;28;20232;-79
2021/08/30 06:12:36;;;;;;;7.28;5.57;;;;;22.90;101963.00;;;;5009571;28;20726;-79
2021/08/30 06:15:03;;;;;;;7.07;5.22;;;;;22.90;101973.00;;;;5008792;28;20201;-78
2021/08/30 06:17:31;;;;;;;14.18;6.10;;;;;22.90;101972.00;;;;5004931;28;20241;-78
2021/08/30 06:20:00;;;;;;;7.63;5.60;;;;;22.90;101972.00;;;;5009922;28;20211;-77
2021/08/30 06:22:27;;;;;;;7.43;5.63;;;;;22.90;101971.00;;;;5008765;28;20205;-77
2021/08/30 06:24:54;;;;;;;7.47;5.85;;;;;23.00;101970.00;;;;5009246;28;20197;-77
2021/08/30 06:27:21;;;;;;;7.97;5.88;;;;;23.00;101977.00;;;;5008659;28;20686;-77
2021/08/30 06:29:49;;;;;;;7.22;4.95;;;;;23.00;101988.00;;;;5009930;28;20193;-79
2021/08/30 06:32:17;;;;;;;7.75;5.43;;;;;23.00;101985.00;;;;5010007;28;20314;-79
2021/08/30 06:34:44;;;;;;;6.60;5.38;;;;;23.00;101981.00;;;;5008828;28;20201;-79
2021/08/30 06:37:13;;;;;;;9.80;6.05;;;;;23.10;101973.00;;;;5008984;28;20744;-79
2021/08/30 06:39:40;;;;;;;9.07;5.97;;;;;23.10;101983.00;;;;5009035;28;20209;-80
2021/08/30 06:42:07;;;;;;;11.57;6.00;;;;;23.10;101976.00;;;;5009447;28;20205;-79
2021/08/30 06:44:35;;;;;;;8.23;6.07;;;;;23.10;101979.00;;;;5008168;28;20201;-79
2021/08/30 06:47:02;;;;;;;7.95;5.70;;;;;23.10;101978.00;;;;5009125;28;20193;-79
2021/08/30 06:49:29;;;;;;;6.38;4.68;;;;;23.20;101984.00;;;;5008598;28;20701;-79
2021/08/30 06:51:57;;;;;;;9.35;5.68;;;;;23.20;101979.00;;;;5007916;28;20204;-80
2021/08/30 06:54:25;;;;;;;8.95;4.68;;;;;23.20;101980.00;;;;5006848;28;20193;-79
2021/08/30 06:56:53;;;;;;;7.55;5.35;;;;;23.20;101980.00;;;;5006641;28;20236;-79
2021/08/30 06:59:20;;;;;;;10.43;5.38;;;;;23.20;101985.00;;;;5008940;28;20213;-79
2021/08/30 07:01:47;;;;;;;6.40;5.15;;;;;23.30;101991.00;;;;5003073;28;20204;-79
2021/08/30 07:04:14;;;;;;;9.73;5.10;;;;;23.30;101989.00;;;;5001965;28;20256;-81
2021/08/30 07:06:42;;;;;;;9.27;5.00;;;;;23.30;101995.00;;;;4994719;28;20682;-79
2021/08/30 07:09:09;;;;;;;7.88;5.45;;;;;23.30;101990.00;;;;5001862;28;20197;-79
2021/08/30 07:11:38;;;;;;;7.65;5.88;;;;;23.30;101988.00;;;;5007843;28;20208;-77
2021/08/30 07:14:05;;;;;;;8.43;5.40;;;;;23.30;101984.00;;;;5007246;28;20213;-78
2021/08/30 07:16:32;;;;;;;6.50;4.93;;;;;23.40;101983.00;;;;5007485;28;20204;-78
2021/08/30 07:19:00;;;;;;;10.27;5.82;;;;;23.40;101991.00;;;;5008341;28;21059;-78
2021/08/30 07:21:28;;;;;;;8.32;5.78;;;;;23.40;101988.00;;;;5008464;28;20197;-78
2021/08/30 07:23:55;;;;;;;8.88;5.75;;;;;23.40;101989.00;;;;5006413;28;20556;-77
2021/08/30 07:26:23;;;;;;;8.15;6.07;;;;;23.40;101991.00;;;;5007412;28;20236;-78
2021/08/30 07:28:52;;;;;;;11.35;5.68;;;;;23.40;101996.00;;;;5006922;28;20574;-78
2021/08/30 07:31:19;;;;;;;10.57;5.45;;;;;23.50;101991.00;;;;5007339;28;20556;-78
2021/08/30 07:33:47;;;;;;;8.70;5.50;;;;;23.50;101986.00;;;;5007484;28;20919;-79
2021/08/30 07:36:14;;;;;;;12.52;5.88;;;;;23.50;101992.00;;;;5008847;28;20205;-79
2021/08/30 07:38:42;;;;;;;6.50;5.40;;;;;23.50;101992.00;;;;5006858;28;20220;-80
2021/08/30 07:41:09;;;;;;;6.88;5.35;;;;;23.50;101991.00;;;;5010534;28;20201;-78
2021/08/30 07:43:37;;;;;;;10.20;5.60;;;;;23.50;101994.00;;;;5005097;28;20205;-78
2021/08/30 07:46:05;;;;;;;5.65;4.97;;;;;23.50;101989.00;;;;5008249;28;20197;-78
2021/08/30 07:48:33;;;;;;;7.88;5.05;;;;;23.60;101988.00;;;;5007208;28;20643;-79
2021/08/30 07:51:00;;;;;;;7.85;5.53;;;;;23.60;102000.00;;;;5010432;28;20201;-78
2021/08/30 07:53:29;;;;;;;6.18;5.13;;;;;23.70;101996.00;;;;5011095;28;20582;-79
2021/08/30 07:55:56;;;;;;;8.63;4.88;;;;;23.70;101993.00;;;;5010615;28;20207;-79
2021/08/30 07:58:24;;;;;;;7.18;5.47;;;;;23.80;102005.00;;;;5003573;28;20232;-79
2021/08/30 08:00:52;;;;;;;7.97;5.50;;;;;23.80;102006.00;;;;5007605;28;20208;-79
2021/08/30 08:03:20;;;;;;;7.32;4.75;;;;;23.80;102009.00;;;;5010152;28;20201;-79
2021/08/30 08:05:48;;;;;;;7.22;5.32;;;;;23.90;102011.00;;;;5008996;28;20205;-79
2021/08/30 08:08:15;;;;;;;8.65;4.97;;;;;23.90;102014.00;;;;5009454;28;20227;-78
2021/08/30 08:10:43;;;;;;;5.70;4.50;;;;;23.90;102011.00;;;;5008868;28;20205;-79
2021/08/30 08:13:11;;;;;;;6.82;4.75;;;;;24.00;102013.00;;;;5010977;28;20589;-79
2021/08/30 08:15:38;;;;;;;12.68;5.80;;;;;24.00;102017.00;;;;5010581;28;20197;-79
2021/08/30 08:18:06;;;;;;;7.93;5.45;;;;;24.00;102010.00;;;;5006443;28;20252;-80
2021/08/30 08:20:34;;;;;;;6.78;4.75;;;;;24.00;102010.00;;;;5002583;28;20220;-79
2021/08/30 08:23:03;;;;;;;7.47;4.13;;;;;24.10;102014.00;;;;5003061;28;20212;-80
2021/08/30 08:25:31;;;;;;;9.07;4.72;;;;;24.10;102011.00;;;;4999329;28;20597;-80
2021/08/30 08:28:03;;;;;;;9.63;4.97;;;;;24.10;102011.00;;;;5010557;28;20204;-79
2021/08/30 08:30:30;;;;;;;6.07;4.43;;;;;24.10;102008.00;;;;5009365;28;20201;-79
2021/08/30 08:32:58;;;;;;;7.53;5.20;;;;;24.20;102013.00;;;;5011175;28;20204;-78
2021/08/30 08:35:25;;;;;;;6.82;4.07;;;;;24.20;102011.00;;;;5010715;28;20300;-79
2021/08/30 08:37:56;;;;;;;8.23;4.53;;;;;24.20;102013.00;;;;5010703;28;20220;-79
2021/08/30 08:40:24;;;;;;;6.90;4.32;;;;;24.40;102008.00;;;;5006794;28;20212;-78
2021/08/30 08:42:52;;;;;;;8.30;5.80;;;;;24.40;102015.00;;;;5011242;28;20545;-78
2021/08/30 08:45:20;;;;;;;7.85;4.93;;;;;24.50;102008.00;;;;5010753;28;20554;-78
2021/08/30 08:47:47;;;;;;;6.60;4.95;;;;;24.60;102008.00;;;;5009745;28;20204;-78
2021/08/30 08:50:16;;;;;;;9.38;4.70;;;;;24.60;102005.00;;;;5009231;28;20201;-79
2021/08/30 08:52:45;;;;;;;6.07;5.18;;;;;24.70;102012.00;;;;5009450;28;20208;-79
2021/08/30 08:55:15;;;;;;;8.55;4.68;;;;;24.70;102012.00;;;;5010653;28;20201;-78
2021/08/30 08:57:43;;;;;;;7.72;5.00;;;;;24.70;102012.00;;;;5010242;28;20612;-78
2021/08/30 09:00:12;;;;;;;9.10;4.97;;;;;24.70;102013.00;;;;5008641;28;20269;-79
2021/08/30 09:02:40;;;;;;;6.50;5.10;;;;;24.80;102015.00;;;;5009503;28;20196;-78
2021/08/30 09:05:09;;;;;;;5.47;4.60;;;;;24.90;102010.00;;;;5009891;28;20559;-78
2021/08/30 09:07:40;;;;;;;7.22;4.70;;;;;24.90;102012.00;;;;5009178;28;20734;-78
2021/08/30 09:10:14;;;;;;;9.18;5.18;;;;;25.00;102009.00;;;;5009871;28;20197;-79
2021/08/30 09:12:42;;;;;;;6.38;4.82;;;;;25.10;102015.00;;;;5009256;28;20821;-78
2021/08/30 09:15:14;;;;;;;5.38;4.32;;;;;25.10;102011.00;;;;5010746;28;20545;-79
2021/08/30 09:17:49;;;;;;;5.10;3.95;;;;;25.20;102005.00;;;;5008196;28;20247;-78
2021/08/30 09:20:17;;;;;;;6.13;4.40;;;;;25.30;102006.00;;;;5008943;28;20224;-78
2021/08/30 09:22:44;;;;;;;7.07;4.28;;;;;25.50;102009.00;;;;5009609;28;20610;-78
2021/08/30 09:25:13;;;;;;;5.43;4.43;;;;;25.60;102001.00;;;;5007738;28;20193;-78
2021/08/30 09:27:44;;;;;;;6.45;4.72;;;;;25.60;102000.00;;;;5009577;28;20729;-78
2021/08/30 09:30:13;;;;;;;6.07;4.22;;;;;25.70;102006.00;;;;5010207;28;20205;-78
2021/08/30 09:32:42;;;;;;;4.82;3.90;;;;;25.80;102011.00;;;;5009643;28;20220;-78
2021/08/30 09:35:10;;;;;;;10.23;4.45;;;;;25.80;102008.00;;;;5009533;28;20296;-78
2021/08/30 09:37:39;;;;;;;5.00;4.30;;;;;25.90;102005.00;;;;5009116;28;20227;-78
2021/08/30 09:40:09;;;;;;;6.03;4.50;;;;;26.00;102003.00;;;;5009177;28;20211;-78
2021/08/30 09:42:40;;;;;;;4.55;3.92;;;;;26.10;101998.00;;;;5008459;28;20205;-79
2021/08/30 09:45:11;;;;;;;6.60;4.32;;;;;26.30;102004.00;;;;5007367;28;20205;-79
2021/08/30 09:47:50;;;;;;;5.72;4.53;;;;;26.40;102009.00;;;;5008529;28;20661;-79
2021/08/30 09:50:17;;;;;;;5.78;3.70;;;;;26.50;102012.00;;;;5010165;28;20201;-79
2021/08/30 09:52:45;;;;;;;7.50;4.85;;;;;26.50;102006.00;;;;4992989;28;20419;-79
2021/08/30 09:55:12;;;;;;;6.57;4.40;;;;;26.50;102001.00;;;;5010268;28;20316;-78
2021/08/30 09:57:46;;;;;;;6.78;4.25;;;;;26.40;102002.00;;;;5008170;28;20228;-79
2021/08/30 10:00:17;;;;;;;7.07;4.10;;;;;26.40;102007.00;;;;4994364;28;20256;-80
2021/08/30 10:02:48;;;;;;;7.90;4.55;;;;;26.40;101998.00;;;;5009373;28;20685;-79
2021/08/30 10:05:17;;;;;;;7.53;4.65;;;;;26.40;102003.00;;;;5009580;28;20189;-80
2021/08/30 10:07:45;;;;;;;7.63;4.70;;;;;26.40;102005.00;;;;5008699;28;20205;-79
2021/08/30 10:10:13;;;;;;;6.22;4.20;;;;;26.40;101992.00;;;;5009011;28;20296;-80
2021/08/30 10:12:41;;;;;;;5.00;4.28;;;;;26.50;102000.00;;;;5008718;28;20570;-79
2021/08/30 10:15:10;;;;;;;6.28;4.45;;;;;26.60;101996.00;;;;5008013;28;20201;-79
2021/08/30 10:17:44;;;;;;;6.95;4.03;;;;;26.80;101996.00;;;;5007608;28;20244;-80
2021/08/30 10:20:17;;;;;;;5.28;4.43;;;;;26.90;101999.00;;;;5009229;28;20205;-79
2021/08/30 10:22:55;;;;;;;6.03;4.35;;;;;27.10;101997.00;;;;5009064;28;20223;-77
2021/08/30 10:25:23;;;;;;;9.52;4.22;;;;;27.20;102000.00;;;;5007695;28;20228;-78
2021/08/30 10:28:01;;;;;;;8.00;4.53;;;;;27.10;101990.00;;;;5008539;28;20201;-78
2021/08/30 10:30:29;;;;;;;4.38;3.72;;;;;27.20;102001.00;;;;5009243;28;20588;-77
2021/08/30 10:33:00;;;;;;;6.43;4.25;;;;;27.10;102002.00;;;;5008760;28;20686;-77
2021/08/30 10:35:31;;;;;;;5.82;4.13;;;;;27.20;102006.00;;;;5008037;28;20208;-78
2021/08/30 10:38:01;;;;;;;5.90;4.15;;;;;27.20;102008.00;;;;5004717;28;20308;-78
2021/08/30 10:40:31;;;;;;;6.43;3.90;;;;;27.10;102007.00;;;;5005551;28;20209;-78
2021/08/30 10:43:04;;;;;;;4.50;3.47;;;;;27.10;102007.00;;;;5009290;28;20209;-77
2021/08/30 10:45:37;;;;;;;4.95;3.63;;;;;27.10;101995.00;;;;5007595;28;20209;-79
2021/08/30 10:48:08;;;;;;;7.75;4.28;;;;;27.10;101996.00;;;;5007614;28;20216;-78
2021/08/30 10:50:40;;;;;;;6.60;4.03;;;;;27.10;101998.00;;;;5008852;28;21043;-78
2021/08/30 10:53:14;;;;;;;6.28;4.20;;;;;27.20;101995.00;;;;5008234;28;20682;-79
2021/08/30 10:55:43;;;;;;;5.95;4.18;;;;;27.10;101993.00;;;;5008280;28;20208;-78
2021/08/30 10:58:22;;;;;;;7.60;4.13;;;;;27.10;101997.00;;;;5008665;28;20229;-79
2021/08/30 11:00:53;;;;;;;6.47;3.70;;;;;27.20;102000.00;;;;5007654;28;20698;-79
2021/08/30 11:03:33;;;;;;;5.50;3.58;;;;;27.10;102004.00;;;;5009088;28;20197;-79
2021/08/30 11:06:11;;;;;;;5.95;3.47;;;;;27.10;101998.00;;;;4999091;28;20200;-78
2021/08/30 11:08:41;;;;;;;3.90;3.50;;;;;27.20;101996.00;;;;5007175;28;20662;-77
2021/08/30 11:11:09;;;;;;;3.92;3.10;;;;;27.30;101993.00;;;;5009140;28;20208;-77
2021/08/30 11:13:38;;;;;;;5.95;3.58;;;;;27.30;101994.00;;;;5007727;28;20232;-78
2021/08/30 11:16:19;;;;;;;5.22;3.95;;;;;27.20;101995.00;;;;5000636;28;20728;-77
2021/08/30 11:18:59;;;;;;;6.78;3.45;;;;;27.20;101994.00;;;;5007707;28;20243;-77
2021/08/30 11:21:38;;;;;;;4.95;3.70;;;;;27.20;101992.00;;;;5008941;28;20207;-78
2021/08/30 11:24:07;;;;;;;5.97;3.22;;;;;27.30;101990.00;;;;4999624;28;20208;-77
2021/08/30 11:26:37;;;;;;;4.93;3.50;;;;;27.30;101987.00;;;;5007104;28;20205;-77
2021/08/30 11:29:08;;;;;;;5.82;3.42;;;;;27.30;101997.00;;;;5008337;28;20301;-77
2021/08/30 11:31:39;;;;;;;4.80;3.05;;;;;27.30;101997.00;;;;5008075;28;20670;-78
2021/08/30 11:34:09;;;;;;;6.88;3.78;;;;;27.30;101988.00;;;;5000122;28;20205;-78
2021/08/30 11:36:55;;;;;;;5.38;3.58;;;;;27.20;101992.00;;;;5008284;28;20205;-77
2021/08/30 11:39:23;;;;;;;6.43;4.60;;;;;27.30;101989.00;;;;5008103;28;20220;-78
2021/08/30 11:41:58;;;;;;;5.13;3.30;;;;;27.30;101996.00;;;;5008628;28;20212;-77
2021/08/30 11:44:25;;;;;;;5.00;3.17;;;;;27.40;101995.00;;;;5005661;28;20204;-79
2021/08/30 11:46:58;;;;;;;5.13;3.60;;;;;27.30;101998.00;;;;4999237;28;20666;-80
2021/08/30 11:49:29;;;;;;;3.25;2.90;;;;;27.30;102004.00;;;;4998987;28;20667;-79
2021/08/30 11:51:59;;;;;;;5.25;3.80;;;;;27.30;101996.00;;;;5002088;28;20201;-80
2021/08/30 11:54:30;;;;;;;4.63;2.95;;;;;27.30;101992.00;;;;5007227;28;20701;-81
2021/08/30 11:57:00;;;;;;;10.00;4.55;;;;;27.40;102004.00;;;;5007627;28;20215;-81
2021/08/30 11:59:32;;;;;;;5.60;4.03;;;;;27.40;101999.00;;;;5008035;28;20232;-82
2021/08/30 12:02:01;;;;;;;5.97;3.00;;;;;27.50;101993.00;;;;5007612;28;20208;-81
2021/08/30 12:04:32;;;;;;;6.05;3.40;;;;;27.50;101997.00;;;;5007123;28;20201;-79
2021/08/30 12:07:01;;;;;;;6.32;3.70;;;;;27.50;101998.00;;;;5005999;28;20199;-81
2021/08/30 12:09:39;;;;;;;8.40;3.45;;;;;27.40;101995.00;;;;5005100;28;20205;-82
2021/08/30 12:12:15;;;;;;;4.47;3.33;;;;;27.50;101994.00;;;;5003684;28;20213;-78
2021/08/30 12:14:53;;;;;;;5.63;3.88;;;;;27.60;101987.00;;;;5001688;28;20201;-77
2021/08/30 12:17:22;;;;;;;5.35;3.45;;;;;27.60;101982.00;;;;5007333;28;20252;-79
2021/08/30 12:19:53;;;;;;;3.67;2.92;;;;;27.60;101992.00;;;;5007411;28;20236;-78